sensor_id;sensor_type;location;lat;lon;timestamp;P1;durP1;ratioP1;P2;durP2;ratioP2
65751;SDS011;52486;51.098;13.770;2023-04-03T00:01:07;2.55;;;1.33;;
65751;SDS011;52486;51.098;13.770;2023-04-03T00:03:33;2.00;;;1.27;;
65751;SDS011;52486;51.098;13.770;2023-04-03T00:05:59;1.60;;;1.30;;
65751;SDS011;52486;51.098;13.770;2023-04-03T00:08:25;1.55;;;1.42;;
65751;SDS011;52486;51.098;13.770;2023-04-03T00:10:51;3.35;;;1.40;;
65751;SDS011;52486;51.098;13.770;2023-04-03T00:13:17;1.75;;;1.10;;
65751;SDS011;52486;51.098;13.770;2023-04-03T00:15:43;1.08;;;0.98;;
65751;SDS011;52486;51.098;13.770;2023-04-03T00:18:09;1.30;;;1.20;;
65751;SDS011;52486;51.098;13.770;2023-04-03T00:20:35;1.40;;;1.23;;
65751;SDS011;52486;51.098;13.770;2023-04-03T00:23:01;4.22;;;1.58;;
65751;SDS011;52486;51.098;13.770;2023-04-03T00:25:27;2.72;;;1.38;;
65751;SDS011;52486;51.098;13.770;2023-04-03T00:27:53;2.15;;;1.52;;
65751;SDS011;52486;51.098;13.770;2023-04-03T00:30:19;1.92;;;1.42;;
65751;SDS011;52486;51.098;13.770;2023-04-03T00:32:50;2.20;;;1.30;;
65751;SDS011;52486;51.098;13.770;2023-04-03T00:35:17;1.27;;;1.10;;
65751;SDS011;52486;51.098;13.770;2023-04-03T00:37:43;1.80;;;1.20;;
65751;SDS011;52486;51.098;13.770;2023-04-03T00:40:10;1.55;;;1.40;;
65751;SDS011;52486;51.098;13.770;2023-04-03T00:42:37;1.80;;;1.35;;
65751;SDS011;52486;51.098;13.770;2023-04-03T00:47:31;1.80;;;1.42;;
65751;SDS011;52486;51.098;13.770;2023-04-03T00:49:57;1.60;;;1.40;;
65751;SDS011;52486;51.098;13.770;2023-04-03T00:52:25;2.47;;;1.50;;
65751;SDS011;52486;51.098;13.770;2023-04-03T00:54:54;2.85;;;1.50;;
65751;SDS011;52486;51.098;13.770;2023-04-03T00:57:23;1.90;;;1.50;;
65751;SDS011;52486;51.098;13.770;2023-04-03T00:59:51;1.42;;;1.33;;
65751;SDS011;52486;51.098;13.770;2023-04-03T01:02:20;1.65;;;1.55;;
65751;SDS011;52486;51.098;13.770;2023-04-03T01:04:46;2.22;;;1.50;;
65751;SDS011;52486;51.098;13.770;2023-04-03T01:09:37;1.55;;;1.33;;
65751;SDS011;52486;51.098;13.770;2023-04-03T01:12:21;2.15;;;1.55;;
65751;SDS011;52486;51.098;13.770;2023-04-03T01:14:50;2.50;;;1.30;;
65751;SDS011;52486;51.098;13.770;2023-04-03T01:17:31;1.33;;;1.23;;
65751;SDS011;52486;51.098;13.770;2023-04-03T01:22:55;2.47;;;1.30;;
65751;SDS011;52486;51.098;13.770;2023-04-03T01:25:24;1.80;;;1.42;;
65751;SDS011;52486;51.098;13.770;2023-04-03T01:27:50;2.85;;;1.50;;
65751;SDS011;52486;51.098;13.770;2023-04-03T01:30:17;1.75;;;1.30;;
65751;SDS011;52486;51.098;13.770;2023-04-03T01:32:45;1.95;;;1.60;;
65751;SDS011;52486;51.098;13.770;2023-04-03T01:35:11;1.75;;;1.50;;
65751;SDS011;52486;51.098;13.770;2023-04-03T01:37:40;1.58;;;1.40;;
65751;SDS011;52486;51.098;13.770;2023-04-03T01:40:06;2.50;;;1.35;;
65751;SDS011;52486;51.098;13.770;2023-04-03T01:42:33;1.70;;;1.40;;
65751;SDS011;52486;51.098;13.770;2023-04-03T01:44:59;1.85;;;1.40;;
65751;SDS011;52486;51.098;13.770;2023-04-03T01:47:24;1.75;;;1.30;;
65751;SDS011;52486;51.098;13.770;2023-04-03T01:49:50;1.48;;;1.30;;
65751;SDS011;52486;51.098;13.770;2023-04-03T01:52:16;1.33;;;1.23;;
65751;SDS011;52486;51.098;13.770;2023-04-03T01:54:41;1.85;;;1.50;;
65751;SDS011;52486;51.098;13.770;2023-04-03T01:57:07;1.67;;;1.40;;
65751;SDS011;52486;51.098;13.770;2023-04-03T01:59:32;1.77;;;1.30;;
65751;SDS011;52486;51.098;13.770;2023-04-03T02:01:58;1.58;;;1.35;;
65751;SDS011;52486;51.098;13.770;2023-04-03T02:04:24;1.65;;;1.35;;
65751;SDS011;52486;51.098;13.770;2023-04-03T02:06:50;1.90;;;1.70;;
65751;SDS011;52486;51.098;13.770;2023-04-03T02:09:15;1.83;;;1.27;;
65751;SDS011;52486;51.098;13.770;2023-04-03T02:11:41;2.13;;;1.50;;
65751;SDS011;52486;51.098;13.770;2023-04-03T02:14:07;1.77;;;1.45;;
65751;SDS011;52486;51.098;13.770;2023-04-03T02:16:32;1.40;;;1.30;;
65751;SDS011;52486;51.098;13.770;2023-04-03T02:18:58;1.55;;;1.25;;
65751;SDS011;52486;51.098;13.770;2023-04-03T02:21:24;1.65;;;1.48;;
65751;SDS011;52486;51.098;13.770;2023-04-03T02:23:49;1.70;;;1.45;;
65751;SDS011;52486;51.098;13.770;2023-04-03T02:26:16;1.45;;;1.35;;
65751;SDS011;52486;51.098;13.770;2023-04-03T02:28:42;2.35;;;1.30;;
65751;SDS011;52486;51.098;13.770;2023-04-03T02:31:08;1.83;;;1.35;;
65751;SDS011;52486;51.098;13.770;2023-04-03T02:33:35;1.60;;;1.35;;
65751;SDS011;52486;51.098;13.770;2023-04-03T02:36:02;1.73;;;1.30;;
65751;SDS011;52486;51.098;13.770;2023-04-03T02:38:31;2.03;;;1.30;;
65751;SDS011;52486;51.098;13.770;2023-04-03T02:41:07;1.63;;;1.30;;
65751;SDS011;52486;51.098;13.770;2023-04-03T02:43:35;2.22;;;1.40;;
65751;SDS011;52486;51.098;13.770;2023-04-03T02:46:01;1.40;;;1.30;;
65751;SDS011;52486;51.098;13.770;2023-04-03T02:48:27;1.35;;;1.20;;
65751;SDS011;52486;51.098;13.770;2023-04-03T02:50:53;2.10;;;1.50;;
65751;SDS011;52486;51.098;13.770;2023-04-03T02:53:19;2.05;;;1.42;;
65751;SDS011;52486;51.098;13.770;2023-04-03T02:55:45;1.40;;;1.30;;
65751;SDS011;52486;51.098;13.770;2023-04-03T02:58:11;2.08;;;1.30;;
65751;SDS011;52486;51.098;13.770;2023-04-03T03:00:36;1.83;;;1.35;;
65751;SDS011;52486;51.098;13.770;2023-04-03T03:03:02;2.00;;;1.52;;
65751;SDS011;52486;51.098;13.770;2023-04-03T03:05:29;1.40;;;1.30;;
65751;SDS011;52486;51.098;13.770;2023-04-03T03:07:55;1.90;;;1.42;;
65751;SDS011;52486;51.098;13.770;2023-04-03T03:10:21;1.95;;;1.20;;
65751;SDS011;52486;51.098;13.770;2023-04-03T03:12:47;2.17;;;1.52;;
65751;SDS011;52486;51.098;13.770;2023-04-03T03:15:13;1.40;;;1.30;;
65751;SDS011;52486;51.098;13.770;2023-04-03T03:17:40;1.63;;;1.48;;
65751;SDS011;52486;51.098;13.770;2023-04-03T03:20:06;1.20;;;1.10;;
65751;SDS011;52486;51.098;13.770;2023-04-03T03:22:33;1.13;;;1.02;;
65751;SDS011;52486;51.098;13.770;2023-04-03T03:24:59;1.45;;;1.30;;
65751;SDS011;52486;51.098;13.770;2023-04-03T03:27:26;1.45;;;1.35;;
65751;SDS011;52486;51.098;13.770;2023-04-03T03:29:51;1.45;;;1.10;;
65751;SDS011;52486;51.098;13.770;2023-04-03T03:32:17;1.45;;;1.17;;
65751;SDS011;52486;51.098;13.770;2023-04-03T03:34:43;1.42;;;1.30;;
65751;SDS011;52486;51.098;13.770;2023-04-03T03:37:08;1.42;;;1.33;;
65751;SDS011;52486;51.098;13.770;2023-04-03T03:39:34;2.30;;;1.48;;
65751;SDS011;52486;51.098;13.770;2023-04-03T03:42:00;1.25;;;1.15;;
65751;SDS011;52486;51.098;13.770;2023-04-03T03:44:26;1.60;;;1.30;;
65751;SDS011;52486;51.098;13.770;2023-04-03T03:46:54;1.85;;;1.30;;
65751;SDS011;52486;51.098;13.770;2023-04-03T03:49:20;2.05;;;1.50;;
65751;SDS011;52486;51.098;13.770;2023-04-03T03:51:46;1.23;;;1.13;;
65751;SDS011;52486;51.098;13.770;2023-04-03T03:54:11;1.63;;;1.27;;
65751;SDS011;52486;51.098;13.770;2023-04-03T03:56:38;1.65;;;1.40;;
65751;SDS011;52486;51.098;13.770;2023-04-03T03:59:04;1.30;;;1.20;;
65751;SDS011;52486;51.098;13.770;2023-04-03T04:01:31;1.95;;;1.40;;
65751;SDS011;52486;51.098;13.770;2023-04-03T04:03:57;2.63;;;1.40;;
65751;SDS011;52486;51.098;13.770;2023-04-03T04:06:23;1.70;;;1.38;;
65751;SDS011;52486;51.098;13.770;2023-04-03T04:08:49;1.40;;;1.27;;
65751;SDS011;52486;51.098;13.770;2023-04-03T04:11:15;1.70;;;1.50;;
65751;SDS011;52486;51.098;13.770;2023-04-03T04:13:40;1.90;;;1.42;;
65751;SDS011;52486;51.098;13.770;2023-04-03T04:16:06;1.80;;;1.50;;
65751;SDS011;52486;51.098;13.770;2023-04-03T04:18:32;1.90;;;1.38;;
65751;SDS011;52486;51.098;13.770;2023-04-03T04:20:58;1.50;;;1.10;;
65751;SDS011;52486;51.098;13.770;2023-04-03T04:23:24;1.55;;;1.10;;
65751;SDS011;52486;51.098;13.770;2023-04-03T04:25:50;2.03;;;1.30;;
65751;SDS011;52486;51.098;13.770;2023-04-03T04:28:16;1.80;;;1.38;;
65751;SDS011;52486;51.098;13.770;2023-04-03T04:30:43;1.30;;;1.20;;
65751;SDS011;52486;51.098;13.770;2023-04-03T04:33:09;1.50;;;1.40;;
65751;SDS011;52486;51.098;13.770;2023-04-03T04:35:35;1.77;;;1.40;;
65751;SDS011;52486;51.098;13.770;2023-04-03T04:38:00;1.63;;;1.30;;
65751;SDS011;52486;51.098;13.770;2023-04-03T04:40:26;1.55;;;1.30;;
65751;SDS011;52486;51.098;13.770;2023-04-03T04:42:52;1.30;;;1.20;;
65751;SDS011;52486;51.098;13.770;2023-04-03T04:45:18;1.63;;;1.50;;
65751;SDS011;52486;51.098;13.770;2023-04-03T04:47:43;1.48;;;1.10;;
65751;SDS011;52486;51.098;13.770;2023-04-03T04:50:09;1.90;;;1.25;;
65751;SDS011;52486;51.098;13.770;2023-04-03T04:52:36;1.65;;;1.27;;
65751;SDS011;52486;51.098;13.770;2023-04-03T04:55:02;1.42;;;1.20;;
65751;SDS011;52486;51.098;13.770;2023-04-03T04:57:28;3.60;;;1.42;;
65751;SDS011;52486;51.098;13.770;2023-04-03T04:59:54;1.20;;;1.10;;
65751;SDS011;52486;51.098;13.770;2023-04-03T05:02:20;1.65;;;1.30;;
65751;SDS011;52486;51.098;13.770;2023-04-03T05:04:45;1.65;;;1.42;;
65751;SDS011;52486;51.098;13.770;2023-04-03T05:07:11;1.95;;;1.40;;
65751;SDS011;52486;51.098;13.770;2023-04-03T05:09:37;2.72;;;1.45;;
65751;SDS011;52486;51.098;13.770;2023-04-03T05:12:03;2.72;;;1.65;;
65751;SDS011;52486;51.098;13.770;2023-04-03T05:14:28;4.03;;;1.65;;
65751;SDS011;52486;51.098;13.770;2023-04-03T05:16:55;3.67;;;1.90;;
65751;SDS011;52486;51.098;13.770;2023-04-03T05:19:20;6.47;;;1.60;;
65751;SDS011;52486;51.098;13.770;2023-04-03T05:21:47;2.97;;;1.60;;
65751;SDS011;52486;51.098;13.770;2023-04-03T05:24:13;5.30;;;1.70;;
65751;SDS011;52486;51.098;13.770;2023-04-03T05:26:39;4.03;;;1.33;;
65751;SDS011;52486;51.098;13.770;2023-04-03T05:29:06;4.03;;;1.55;;
65751;SDS011;52486;51.098;13.770;2023-04-03T05:31:31;2.30;;;1.48;;
65751;SDS011;52486;51.098;13.770;2023-04-03T05:33:57;3.35;;;1.73;;
65751;SDS011;52486;51.098;13.770;2023-04-03T05:36:23;3.60;;;1.80;;
65751;SDS011;52486;51.098;13.770;2023-04-03T05:38:49;5.55;;;1.85;;
65751;SDS011;52486;51.098;13.770;2023-04-03T05:41:14;5.75;;;2.03;;
65751;SDS011;52486;51.098;13.770;2023-04-03T05:43:40;6.15;;;2.20;;
65751;SDS011;52486;51.098;13.770;2023-04-03T05:46:13;4.00;;;1.98;;
65751;SDS011;52486;51.098;13.770;2023-04-03T05:48:40;4.95;;;2.10;;
65751;SDS011;52486;51.098;13.770;2023-04-03T05:51:07;3.90;;;2.15;;
65751;SDS011;52486;51.098;13.770;2023-04-03T05:53:38;4.15;;;1.90;;
65751;SDS011;52486;51.098;13.770;2023-04-03T05:56:04;5.10;;;1.77;;
65751;SDS011;52486;51.098;13.770;2023-04-03T05:58:30;3.15;;;1.80;;
65751;SDS011;52486;51.098;13.770;2023-04-03T06:00:56;3.22;;;1.70;;
65751;SDS011;52486;51.098;13.770;2023-04-03T06:03:22;3.28;;;1.50;;
65751;SDS011;52486;51.098;13.770;2023-04-03T06:05:48;3.63;;;2.00;;
65751;SDS011;52486;51.098;13.770;2023-04-03T06:08:13;4.53;;;1.83;;
65751;SDS011;52486;51.098;13.770;2023-04-03T06:10:39;4.97;;;2.00;;
65751;SDS011;52486;51.098;13.770;2023-04-03T06:13:05;3.67;;;1.80;;
65751;SDS011;52486;51.098;13.770;2023-04-03T06:15:32;10.18;;;1.95;;
65751;SDS011;52486;51.098;13.770;2023-04-03T06:17:58;3.25;;;1.70;;
65751;SDS011;52486;51.098;13.770;2023-04-03T06:20:25;5.25;;;1.80;;
65751;SDS011;52486;51.098;13.770;2023-04-03T06:22:50;3.08;;;1.77;;
65751;SDS011;52486;51.098;13.770;2023-04-03T06:25:16;7.05;;;1.95;;
65751;SDS011;52486;51.098;13.770;2023-04-03T06:27:43;3.70;;;2.03;;
65751;SDS011;52486;51.098;13.770;2023-04-03T06:30:10;4.53;;;2.03;;
65751;SDS011;52486;51.098;13.770;2023-04-03T06:32:36;3.28;;;1.65;;
65751;SDS011;52486;51.098;13.770;2023-04-03T06:35:03;3.90;;;1.70;;
65751;SDS011;52486;51.098;13.770;2023-04-03T06:37:29;2.05;;;1.80;;
65751;SDS011;52486;51.098;13.770;2023-04-03T06:39:55;5.50;;;1.63;;
65751;SDS011;52486;51.098;13.770;2023-04-03T06:42:21;6.32;;;1.92;;
65751;SDS011;52486;51.098;13.770;2023-04-03T06:44:48;8.23;;;1.75;;
65751;SDS011;52486;51.098;13.770;2023-04-03T06:47:14;9.90;;;2.53;;
65751;SDS011;52486;51.098;13.770;2023-04-03T06:49:41;5.10;;;1.88;;
65751;SDS011;52486;51.098;13.770;2023-04-03T06:52:08;3.40;;;2.00;;
65751;SDS011;52486;51.098;13.770;2023-04-03T06:54:35;5.13;;;2.30;;
65751;SDS011;52486;51.098;13.770;2023-04-03T06:57:01;7.07;;;2.45;;
65751;SDS011;52486;51.098;13.770;2023-04-03T06:59:27;3.78;;;2.03;;
65751;SDS011;52486;51.098;13.770;2023-04-03T07:01:53;2.63;;;1.88;;
65751;SDS011;52486;51.098;13.770;2023-04-03T07:04:18;4.15;;;1.90;;
65751;SDS011;52486;51.098;13.770;2023-04-03T07:06:45;5.47;;;2.00;;
65751;SDS011;52486;51.098;13.770;2023-04-03T07:09:12;6.05;;;1.98;;
65751;SDS011;52486;51.098;13.770;2023-04-03T07:11:39;8.20;;;2.10;;
65751;SDS011;52486;51.098;13.770;2023-04-03T07:14:04;7.65;;;2.05;;
65751;SDS011;52486;51.098;13.770;2023-04-03T07:16:32;3.88;;;1.80;;
65751;SDS011;52486;51.098;13.770;2023-04-03T07:18:59;2.97;;;1.80;;
65751;SDS011;52486;51.098;13.770;2023-04-03T07:21:24;4.82;;;2.08;;
65751;SDS011;52486;51.098;13.770;2023-04-03T07:23:50;4.20;;;1.90;;
65751;SDS011;52486;51.098;13.770;2023-04-03T07:26:16;3.40;;;1.90;;
65751;SDS011;52486;51.098;13.770;2023-04-03T07:28:42;5.45;;;2.05;;
65751;SDS011;52486;51.098;13.770;2023-04-03T07:31:12;2.60;;;1.80;;
65751;SDS011;52486;51.098;13.770;2023-04-03T07:33:42;6.10;;;1.80;;
65751;SDS011;52486;51.098;13.770;2023-04-03T07:36:09;3.95;;;2.20;;
65751;SDS011;52486;51.098;13.770;2023-04-03T07:38:35;5.15;;;2.50;;
65751;SDS011;52486;51.098;13.770;2023-04-03T07:41:02;4.63;;;2.05;;
65751;SDS011;52486;51.098;13.770;2023-04-03T07:43:28;5.45;;;2.00;;
65751;SDS011;52486;51.098;13.770;2023-04-03T07:45:54;6.65;;;2.17;;
65751;SDS011;52486;51.098;13.770;2023-04-03T07:48:21;4.53;;;1.70;;
65751;SDS011;52486;51.098;13.770;2023-04-03T07:50:48;6.15;;;2.05;;
65751;SDS011;52486;51.098;13.770;2023-04-03T07:53:14;3.97;;;2.30;;
65751;SDS011;52486;51.098;13.770;2023-04-03T07:55:40;3.13;;;2.20;;
65751;SDS011;52486;51.098;13.770;2023-04-03T07:58:09;5.55;;;2.15;;
65751;SDS011;52486;51.098;13.770;2023-04-03T08:00:35;7.35;;;2.22;;
65751;SDS011;52486;51.098;13.770;2023-04-03T08:03:02;5.82;;;2.10;;
65751;SDS011;52486;51.098;13.770;2023-04-03T08:05:28;6.15;;;2.13;;
65751;SDS011;52486;51.098;13.770;2023-04-03T08:07:53;13.07;;;2.28;;
65751;SDS011;52486;51.098;13.770;2023-04-03T08:10:20;8.85;;;2.75;;
65751;SDS011;52486;51.098;13.770;2023-04-03T08:12:46;4.35;;;2.17;;
65751;SDS011;52486;51.098;13.770;2023-04-03T08:15:12;10.80;;;2.47;;
65751;SDS011;52486;51.098;13.770;2023-04-03T08:17:38;4.75;;;2.08;;
65751;SDS011;52486;51.098;13.770;2023-04-03T08:20:04;5.53;;;2.10;;
65751;SDS011;52486;51.098;13.770;2023-04-03T08:22:32;5.15;;;1.90;;
65751;SDS011;52486;51.098;13.770;2023-04-03T08:24:58;5.85;;;2.13;;
65751;SDS011;52486;51.098;13.770;2023-04-03T08:27:25;4.10;;;1.95;;
65751;SDS011;52486;51.098;13.770;2023-04-03T08:29:51;4.32;;;2.17;;
65751;SDS011;52486;51.098;13.770;2023-04-03T08:32:17;5.93;;;2.00;;
65751;SDS011;52486;51.098;13.770;2023-04-03T08:34:44;6.95;;;2.45;;
65751;SDS011;52486;51.098;13.770;2023-04-03T08:37:09;7.15;;;2.72;;
65751;SDS011;52486;51.098;13.770;2023-04-03T08:39:35;6.25;;;2.65;;
65751;SDS011;52486;51.098;13.770;2023-04-03T08:42:02;8.57;;;2.40;;
65751;SDS011;52486;51.098;13.770;2023-04-03T08:52:54;3.95;;;2.28;;
65751;SDS011;52486;51.098;13.770;2023-04-03T08:55:43;4.72;;;2.13;;
65751;SDS011;52486;51.098;13.770;2023-04-03T09:01:28;4.45;;;2.22;;
65751;SDS011;52486;51.098;13.770;2023-04-03T09:04:05;7.35;;;2.13;;
65751;SDS011;52486;51.098;13.770;2023-04-03T09:06:39;7.57;;;2.10;;
65751;SDS011;52486;51.098;13.770;2023-04-03T09:09:24;10.00;;;2.10;;
65751;SDS011;52486;51.098;13.770;2023-04-03T09:12:17;5.18;;;2.13;;
65751;SDS011;52486;51.098;13.770;2023-04-03T09:15:06;10.52;;;2.20;;
65751;SDS011;52486;51.098;13.770;2023-04-03T09:20:53;4.82;;;1.83;;
65751;SDS011;52486;51.098;13.770;2023-04-03T09:23:45;5.10;;;2.17;;
65751;SDS011;52486;51.098;13.770;2023-04-03T09:26:26;3.67;;;2.08;;
65751;SDS011;52486;51.098;13.770;2023-04-03T09:28:55;6.57;;;1.95;;
65751;SDS011;52486;51.098;13.770;2023-04-03T09:31:27;8.90;;;2.03;;
65751;SDS011;52486;51.098;13.770;2023-04-03T09:36:42;4.32;;;1.88;;
65751;SDS011;52486;51.098;13.770;2023-04-03T09:39:19;7.90;;;1.80;;
65751;SDS011;52486;51.098;13.770;2023-04-03T09:44:28;9.75;;;1.90;;
65751;SDS011;52486;51.098;13.770;2023-04-03T09:46:53;6.30;;;2.00;;
65751;SDS011;52486;51.098;13.770;2023-04-03T09:49:19;8.82;;;1.92;;
65751;SDS011;52486;51.098;13.770;2023-04-03T09:51:46;8.93;;;2.22;;
65751;SDS011;52486;51.098;13.770;2023-04-03T09:57:11;4.90;;;1.70;;
65751;SDS011;52486;51.098;13.770;2023-04-03T09:59:56;6.25;;;1.80;;
65751;SDS011;52486;51.098;13.770;2023-04-03T10:05:24;6.38;;;1.75;;
65751;SDS011;52486;51.098;13.770;2023-04-03T10:08:10;7.88;;;1.70;;
65751;SDS011;52486;51.098;13.770;2023-04-03T10:10:45;3.70;;;1.88;;
65751;SDS011;52486;51.098;13.770;2023-04-03T10:13:13;11.18;;;1.88;;
65751;SDS011;52486;51.098;13.770;2023-04-03T10:15:48;6.82;;;1.77;;
65751;SDS011;52486;51.098;13.770;2023-04-03T10:18:26;7.85;;;1.52;;
65751;SDS011;52486;51.098;13.770;2023-04-03T10:20:59;5.93;;;1.65;;
65751;SDS011;52486;51.098;13.770;2023-04-03T10:23:45;4.13;;;1.70;;
65751;SDS011;52486;51.098;13.770;2023-04-03T10:26:35;6.95;;;1.58;;
65751;SDS011;52486;51.098;13.770;2023-04-03T10:29:34;5.38;;;1.77;;
65751;SDS011;52486;51.098;13.770;2023-04-03T10:35:08;5.68;;;1.70;;
65751;SDS011;52486;51.098;13.770;2023-04-03T10:41:07;8.60;;;2.10;;
65751;SDS011;52486;51.098;13.770;2023-04-03T10:46:49;8.57;;;1.90;;
65751;SDS011;52486;51.098;13.770;2023-04-03T10:54:52;7.40;;;1.58;;
65751;SDS011;52486;51.098;13.770;2023-04-03T10:57:40;8.23;;;2.10;;
65751;SDS011;52486;51.098;13.770;2023-04-03T11:00:07;5.78;;;2.00;;
65751;SDS011;52486;51.098;13.770;2023-04-03T11:02:54;6.97;;;1.48;;
65751;SDS011;52486;51.098;13.770;2023-04-03T11:05:31;16.40;;;2.10;;
65751;SDS011;52486;51.098;13.770;2023-04-03T11:07:59;5.43;;;1.73;;
65751;SDS011;52486;51.098;13.770;2023-04-03T11:13:11;9.40;;;1.80;;
65751;SDS011;52486;51.098;13.770;2023-04-03T11:15:42;2.95;;;1.85;;
65751;SDS011;52486;51.098;13.770;2023-04-03T11:18:21;6.03;;;1.60;;
65751;SDS011;52486;51.098;13.770;2023-04-03T11:21:03;3.85;;;1.67;;
65751;SDS011;52486;51.098;13.770;2023-04-03T11:23:34;10.32;;;2.17;;
65751;SDS011;52486;51.098;13.770;2023-04-03T11:28:39;3.85;;;1.60;;
65751;SDS011;52486;51.098;13.770;2023-04-03T11:31:25;3.08;;;1.70;;
65751;SDS011;52486;51.098;13.770;2023-04-03T11:36:48;5.93;;;1.67;;
65751;SDS011;52486;51.098;13.770;2023-04-03T11:42:17;8.57;;;1.63;;
65751;SDS011;52486;51.098;13.770;2023-04-03T11:44:50;6.03;;;1.52;;
65751;SDS011;52486;51.098;13.770;2023-04-03T11:47:43;10.65;;;1.50;;
65751;SDS011;52486;51.098;13.770;2023-04-03T11:50:55;3.83;;;1.47;;
65751;SDS011;52486;51.098;13.770;2023-04-03T11:53:03;6.90;;;1.38;;
65751;SDS011;52486;51.098;13.770;2023-04-03T12:16:20;4.80;;;1.20;;
65751;SDS011;52486;51.098;13.770;2023-04-03T12:21:14;4.97;;;1.30;;
65751;SDS011;52486;51.098;13.770;2023-04-03T12:26:22;4.65;;;1.45;;
65751;SDS011;52486;51.098;13.770;2023-04-03T12:28:51;1.38;;;1.20;;
65751;SDS011;52486;51.098;13.770;2023-04-03T12:31:19;2.80;;;1.10;;
65751;SDS011;52486;51.098;13.770;2023-04-03T12:39:35;2.05;;;0.88;;
65751;SDS011;52486;51.098;13.770;2023-04-03T12:42:40;5.30;;;1.02;;
65751;SDS011;52486;51.098;13.770;2023-04-03T12:45:22;5.10;;;1.10;;
65751;SDS011;52486;51.098;13.770;2023-04-03T12:47:50;2.38;;;1.17;;
65751;SDS011;52486;51.098;13.770;2023-04-03T12:50:20;4.30;;;1.50;;
65751;SDS011;52486;51.098;13.770;2023-04-03T12:55:29;3.30;;;0.85;;
65751;SDS011;52486;51.098;13.770;2023-04-03T12:57:54;4.72;;;1.27;;
65751;SDS011;52486;51.098;13.770;2023-04-03T13:02:46;3.63;;;1.20;;
65751;SDS011;52486;51.098;13.770;2023-04-03T13:05:14;3.00;;;1.30;;
65751;SDS011;52486;51.098;13.770;2023-04-03T13:07:43;1.17;;;0.95;;
65751;SDS011;52486;51.098;13.770;2023-04-03T13:10:16;4.10;;;1.25;;
65751;SDS011;52486;51.098;13.770;2023-04-03T13:15:16;2.13;;;1.17;;
65751;SDS011;52486;51.098;13.770;2023-04-03T13:17:45;2.50;;;0.90;;
65751;SDS011;52486;51.098;13.770;2023-04-03T13:20:21;2.83;;;0.95;;
65751;SDS011;52486;51.098;13.770;2023-04-03T13:23:02;4.03;;;0.85;;
65751;SDS011;52486;51.098;13.770;2023-04-03T13:25:31;3.28;;;1.17;;
65751;SDS011;52486;51.098;13.770;2023-04-03T13:27:59;5.07;;;1.10;;
65751;SDS011;52486;51.098;13.770;2023-04-03T13:30:28;3.20;;;1.00;;
65751;SDS011;52486;51.098;13.770;2023-04-03T13:32:56;3.60;;;0.90;;
65751;SDS011;52486;51.098;13.770;2023-04-03T13:35:35;2.60;;;1.13;;
65751;SDS011;52486;51.098;13.770;2023-04-03T13:40:47;3.20;;;1.00;;
65751;SDS011;52486;51.098;13.770;2023-04-03T13:43:20;3.17;;;1.20;;
65751;SDS011;52486;51.098;13.770;2023-04-03T13:48:44;2.88;;;0.90;;
65751;SDS011;52486;51.098;13.770;2023-04-03T13:59:00;2.50;;;0.80;;
65751;SDS011;52486;51.098;13.770;2023-04-03T14:04:19;3.33;;;1.17;;
65751;SDS011;52486;51.098;13.770;2023-04-03T14:06:53;2.87;;;0.87;;
65751;SDS011;52486;51.098;13.770;2023-04-03T14:09:20;3.33;;;0.73;;
65751;SDS011;52486;51.098;13.770;2023-04-03T14:11:48;2.15;;;1.20;;
65751;SDS011;52486;51.098;13.770;2023-04-03T14:14:27;5.68;;;0.95;;
65751;SDS011;52486;51.098;13.770;2023-04-03T14:16:56;2.65;;;1.10;;
65751;SDS011;52486;51.098;13.770;2023-04-03T14:19:26;4.78;;;1.23;;
65751;SDS011;52486;51.098;13.770;2023-04-03T14:21:57;1.80;;;1.10;;
65751;SDS011;52486;51.098;13.770;2023-04-03T14:24:24;7.13;;;1.38;;
65751;SDS011;52486;51.098;13.770;2023-04-03T14:26:51;4.18;;;1.00;;
65751;SDS011;52486;51.098;13.770;2023-04-03T14:29:18;3.78;;;1.30;;
65751;SDS011;52486;51.098;13.770;2023-04-03T14:31:46;8.85;;;1.50;;
65751;SDS011;52486;51.098;13.770;2023-04-03T14:34:14;4.43;;;1.15;;
65751;SDS011;52486;51.098;13.770;2023-04-03T14:36:41;2.60;;;1.05;;
65751;SDS011;52486;51.098;13.770;2023-04-03T14:39:10;2.20;;;1.27;;
65751;SDS011;52486;51.098;13.770;2023-04-03T14:41:41;2.90;;;1.23;;
65751;SDS011;52486;51.098;13.770;2023-04-03T14:44:08;4.72;;;1.10;;
65751;SDS011;52486;51.098;13.770;2023-04-03T14:46:38;3.72;;;1.23;;
65751;SDS011;52486;51.098;13.770;2023-04-03T14:49:13;3.50;;;1.17;;
65751;SDS011;52486;51.098;13.770;2023-04-03T14:51:41;3.08;;;1.13;;
65751;SDS011;52486;51.098;13.770;2023-04-03T14:54:17;1.75;;;1.20;;
65751;SDS011;52486;51.098;13.770;2023-04-03T14:56:46;9.18;;;1.23;;
65751;SDS011;52486;51.098;13.770;2023-04-03T14:59:12;3.05;;;1.00;;
65751;SDS011;52486;51.098;13.770;2023-04-03T15:01:39;7.07;;;1.17;;
65751;SDS011;52486;51.098;13.770;2023-04-03T15:04:15;4.72;;;1.08;;
65751;SDS011;52486;51.098;13.770;2023-04-03T15:06:45;8.20;;;1.30;;
65751;SDS011;52486;51.098;13.770;2023-04-03T15:09:22;8.48;;;1.48;;
65751;SDS011;52486;51.098;13.770;2023-04-03T15:11:51;4.72;;;1.27;;
65751;SDS011;52486;51.098;13.770;2023-04-03T15:14:18;2.75;;;1.13;;
65751;SDS011;52486;51.098;13.770;2023-04-03T15:16:44;8.68;;;1.35;;
65751;SDS011;52486;51.098;13.770;2023-04-03T15:19:10;3.92;;;1.25;;
65751;SDS011;52486;51.098;13.770;2023-04-03T15:21:36;3.17;;;1.23;;
65751;SDS011;52486;51.098;13.770;2023-04-03T15:24:03;1.27;;;0.85;;
65751;SDS011;52486;51.098;13.770;2023-04-03T15:26:29;4.10;;;1.10;;
65751;SDS011;52486;51.098;13.770;2023-04-03T15:28:56;2.40;;;1.30;;
65751;SDS011;52486;51.098;13.770;2023-04-03T15:31:22;5.70;;;1.50;;
65751;SDS011;52486;51.098;13.770;2023-04-03T15:33:48;1.88;;;0.93;;
65751;SDS011;52486;51.098;13.770;2023-04-03T15:36:13;6.28;;;1.00;;
65751;SDS011;52486;51.098;13.770;2023-04-03T15:38:39;4.55;;;1.30;;
65751;SDS011;52486;51.098;13.770;2023-04-03T15:41:05;5.00;;;1.20;;
65751;SDS011;52486;51.098;13.770;2023-04-03T15:43:30;3.47;;;1.30;;
65751;SDS011;52486;51.098;13.770;2023-04-03T15:45:58;6.85;;;1.00;;
65751;SDS011;52486;51.098;13.770;2023-04-03T15:48:26;3.15;;;1.00;;
65751;SDS011;52486;51.098;13.770;2023-04-03T15:50:53;4.40;;;1.10;;
65751;SDS011;52486;51.098;13.770;2023-04-03T15:53:19;7.70;;;1.20;;
65751;SDS011;52486;51.098;13.770;2023-04-03T15:55:45;2.05;;;1.10;;
65751;SDS011;52486;51.098;13.770;2023-04-03T15:58:11;3.92;;;1.15;;
65751;SDS011;52486;51.098;13.770;2023-04-03T16:00:37;1.58;;;1.00;;
65751;SDS011;52486;51.098;13.770;2023-04-03T16:03:08;2.92;;;1.00;;
65751;SDS011;52486;51.098;13.770;2023-04-03T16:05:36;6.55;;;1.42;;
65751;SDS011;52486;51.098;13.770;2023-04-03T16:08:04;1.85;;;1.05;;
65751;SDS011;52486;51.098;13.770;2023-04-03T16:10:32;5.75;;;1.30;;
65751;SDS011;52486;51.098;13.770;2023-04-03T16:12:59;5.60;;;1.10;;
65751;SDS011;52486;51.098;13.770;2023-04-03T16:15:25;6.38;;;1.10;;
65751;SDS011;52486;51.098;13.770;2023-04-03T16:17:51;1.42;;;0.98;;
65751;SDS011;52486;51.098;13.770;2023-04-03T16:20:18;2.35;;;1.23;;
65751;SDS011;52486;51.098;13.770;2023-04-03T16:22:45;6.72;;;1.15;;
65751;SDS011;52486;51.098;13.770;2023-04-03T16:25:11;3.58;;;1.23;;
65751;SDS011;52486;51.098;13.770;2023-04-03T16:27:37;2.03;;;1.00;;
65751;SDS011;52486;51.098;13.770;2023-04-03T16:30:03;6.13;;;1.13;;
65751;SDS011;52486;51.098;13.770;2023-04-03T16:32:31;3.90;;;1.10;;
65751;SDS011;52486;51.098;13.770;2023-04-03T16:34:57;1.88;;;0.98;;
65751;SDS011;52486;51.098;13.770;2023-04-03T16:37:23;1.27;;;0.90;;